createdAt,value
2018-05-17T00:01:17.196Z,14.43
2018-05-17T00:03:44.817Z,13.90
2018-05-17T00:06:12.393Z,17.08
2018-05-17T00:08:40.018Z,12.13
2018-05-17T00:11:07.639Z,14.75
2018-05-17T00:13:35.499Z,20.55
2018-05-17T00:16:03.562Z,12.63
2018-05-17T00:18:31.193Z,17.42
2018-05-17T00:20:59.260Z,17.75
2018-05-17T00:23:26.910Z,17.27
2018-05-17T00:25:55.061Z,17.73
2018-05-17T00:28:22.639Z,18.53
2018-05-17T00:30:50.211Z,13.23
2018-05-17T00:33:17.820Z,18.03
2018-05-17T00:35:45.475Z,19.12
2018-05-17T00:38:13.057Z,13.02
2018-05-17T00:40:40.637Z,25.62
2018-05-17T00:43:08.243Z,18.77
2018-05-17T00:45:35.854Z,20.73
2018-05-17T00:48:03.428Z,21.70
2018-05-17T00:50:31.044Z,16.17
2018-05-17T00:53:10.484Z,12.80
2018-05-17T00:55:38.068Z,20.67
2018-05-17T00:58:05.704Z,26.40
2018-05-17T01:00:33.937Z,14.30
2018-05-17T01:03:01.544Z,14.50
2018-05-17T01:05:29.310Z,15.05
2018-05-17T01:07:56.885Z,15.93
2018-05-17T01:10:24.864Z,11.00
2018-05-17T01:12:52.603Z,20.40
2018-05-17T01:15:20.226Z,15.53
2018-05-17T01:17:47.814Z,19.62
2018-05-17T01:20:15.537Z,29.10
2018-05-17T01:22:43.341Z,14.38
2018-05-17T01:25:11.121Z,18.63
2018-05-17T01:27:38.931Z,15.40
2018-05-17T01:30:06.627Z,18.67
2018-05-17T01:32:34.221Z,15.63
2018-05-17T01:35:01.910Z,18.55
2018-05-17T01:37:41.257Z,20.60
2018-05-17T01:40:08.865Z,21.45
2018-05-17T01:42:36.502Z,16.37
2018-05-17T01:45:04.089Z,16.67
2018-05-17T01:47:32.034Z,17.40
2018-05-17T01:50:00.249Z,18.53
2018-05-17T01:52:27.865Z,23.53
2018-05-17T01:54:55.621Z,17.40
2018-05-17T01:57:23.247Z,16.30
2018-05-17T01:59:50.830Z,20.27
2018-05-17T02:02:18.459Z,21.70
2018-05-17T02:04:46.078Z,21.20
2018-05-17T02:07:13.653Z,20.42
2018-05-17T02:09:41.266Z,15.82
2018-05-17T02:12:08.873Z,19.65
2018-05-17T02:14:36.481Z,28.80
2018-05-17T02:17:04.069Z,23.62
2018-05-17T02:19:31.693Z,26.52
2018-05-17T02:21:59.273Z,28.67
2018-05-17T02:24:27.669Z,20.93
2018-05-17T02:26:55.999Z,27.33
2018-05-17T02:29:23.616Z,24.03
2018-05-17T02:31:51.190Z,27.87
2018-05-17T02:34:18.809Z,13.17
2018-05-17T02:36:46.397Z,30.10
2018-05-17T02:39:14.031Z,26.60
2018-05-17T02:41:41.650Z,25.00
2018-05-17T02:44:09.243Z,34.85
2018-05-17T02:46:36.857Z,19.33
2018-05-17T02:49:04.534Z,20.62
2018-05-17T02:51:32.096Z,21.67
2018-05-17T02:53:59.804Z,16.83
2018-05-17T02:56:27.421Z,22.37
2018-05-17T02:58:55.040Z,20.40
2018-05-17T03:01:22.664Z,18.87
2018-05-17T03:03:50.260Z,22.20
2018-05-17T03:06:17.915Z,24.43
2018-05-17T03:08:45.530Z,23.40
2018-05-17T03:11:13.113Z,17.17
2018-05-17T03:13:40.717Z,27.33
2018-05-17T03:16:08.345Z,21.47
2018-05-17T03:18:36.502Z,27.77
2018-05-17T03:21:04.125Z,23.70
2018-05-17T03:23:31.729Z,18.90
2018-05-17T03:25:59.352Z,23.30
2018-05-17T03:28:26.941Z,27.50
2018-05-17T03:30:54.797Z,20.52
2018-05-17T03:33:22.385Z,27.30
2018-05-17T03:35:50.240Z,19.33
2018-05-17T03:38:17.851Z,20.50
2018-05-17T03:40:45.936Z,24.17
2018-05-17T03:43:13.565Z,27.60
2018-05-17T03:45:41.193Z,22.93
2018-05-17T03:48:08.828Z,22.17
2018-05-17T03:50:36.401Z,24.43
2018-05-17T03:53:04.022Z,23.30
2018-05-17T03:55:31.632Z,27.10
2018-05-17T03:57:59.209Z,29.60
2018-05-17T04:03:40.408Z,28.15
2018-05-17T04:06:19.556Z,28.30
2018-05-17T04:08:47.218Z,16.93
2018-05-17T04:11:14.801Z,19.15
2018-05-17T04:13:42.589Z,24.20
2018-05-17T04:16:10.350Z,31.03
2018-05-17T04:18:37.945Z,22.93
2018-05-17T04:21:05.601Z,24.70
2018-05-17T04:23:33.231Z,26.83
2018-05-17T04:26:01.072Z,22.00
2018-05-17T04:28:28.739Z,20.52
2018-05-17T04:30:56.327Z,21.00
2018-05-17T04:33:23.947Z,33.37
2018-05-17T04:35:52.011Z,32.33
2018-05-17T04:38:19.649Z,18.60
2018-05-17T04:40:47.281Z,22.97
2018-05-17T04:43:15.557Z,31.20
2018-05-17T04:45:43.218Z,30.73
2018-05-17T04:48:11.834Z,25.58
2018-05-17T04:50:39.417Z,27.27
2018-05-17T04:53:07.112Z,25.90
2018-05-17T04:55:35.252Z,26.13
2018-05-17T04:58:03.017Z,30.07
2018-05-17T05:00:31.190Z,25.23
2018-05-17T05:02:58.832Z,20.50
2018-05-17T05:05:26.736Z,19.37
2018-05-17T05:07:58.234Z,25.07
2018-05-17T05:10:26.373Z,28.42
2018-05-17T05:12:53.968Z,28.12
2018-05-17T05:15:21.559Z,25.80
2018-05-17T05:17:49.338Z,29.03
2018-05-17T05:20:16.916Z,29.63
2018-05-17T05:22:44.740Z,22.87
2018-05-17T05:25:13.332Z,20.73
2018-05-17T05:27:40.939Z,28.07
2018-05-17T05:30:09.154Z,26.67
2018-05-17T05:32:36.905Z,20.40
2018-05-17T05:35:04.530Z,24.87
2018-05-17T05:37:32.302Z,26.73
2018-05-17T05:40:00.015Z,24.07
2018-05-17T05:42:27.648Z,17.58
2018-05-17T05:44:56.169Z,27.92
2018-05-17T05:47:23.758Z,19.58
2018-05-17T05:49:51.689Z,27.90
2018-05-17T05:52:19.448Z,18.00
2018-05-17T05:54:47.103Z,23.12
2018-05-17T05:57:14.976Z,21.03
2018-05-17T05:59:42.639Z,22.37
2018-05-17T06:02:10.405Z,21.93
2018-05-17T06:04:38.264Z,22.20
2018-05-17T06:07:06.050Z,23.87
2018-05-17T06:09:33.632Z,22.60
2018-05-17T06:12:01.551Z,24.10
2018-05-17T06:14:29.202Z,18.03
2018-05-17T06:16:56.799Z,20.73
2018-05-17T06:19:24.689Z,22.57
2018-05-17T06:21:52.317Z,20.43
2018-05-17T06:24:20.058Z,20.20
2018-05-17T06:26:47.679Z,22.30
2018-05-17T06:29:15.330Z,24.97
2018-05-17T06:31:42.949Z,30.47
2018-05-17T06:34:10.545Z,26.73
2018-05-17T06:36:38.220Z,19.10
2018-05-17T06:39:06.790Z,25.93
2018-05-17T06:41:34.432Z,20.50
2018-05-17T06:44:02.022Z,22.50
2018-05-17T06:46:29.652Z,26.30
2018-05-17T06:48:57.248Z,22.48
2018-05-17T06:51:25.446Z,21.20
2018-05-17T06:53:53.081Z,23.67
2018-05-17T06:56:20.733Z,24.50
2018-05-17T06:58:48.371Z,31.97
2018-05-17T07:01:15.974Z,19.65
2018-05-17T07:03:43.608Z,24.60
2018-05-17T07:06:11.193Z,22.67
2018-05-17T07:08:38.809Z,22.23
2018-05-17T07:11:06.394Z,21.87
2018-05-17T07:13:34.005Z,20.17
2018-05-17T07:16:01.600Z,24.30
2018-05-17T07:18:29.387Z,24.85
2018-05-17T07:20:56.828Z,22.33
2018-05-17T07:23:24.463Z,20.43
2018-05-17T07:25:52.108Z,26.70
2018-05-17T07:28:19.700Z,28.40
2018-05-17T07:30:47.324Z,25.20
2018-05-17T07:33:15.131Z,21.37
2018-05-17T07:35:42.823Z,18.95
2018-05-17T07:38:18.158Z,18.50
2018-05-17T07:40:46.022Z,18.80
2018-05-17T07:43:13.800Z,23.30
2018-05-17T07:45:41.620Z,26.90
2018-05-17T07:48:09.365Z,25.02
2018-05-17T07:50:36.990Z,22.17
2018-05-17T07:53:04.600Z,19.52
2018-05-17T07:55:32.559Z,28.90
2018-05-17T07:58:00.173Z,20.60
2018-05-17T08:00:27.791Z,24.30
2018-05-17T08:02:55.416Z,21.37
2018-05-17T08:05:23.038Z,21.12
2018-05-17T08:07:50.616Z,24.67
2018-05-17T08:10:18.240Z,20.30
2018-05-17T08:12:46.491Z,18.50
2018-05-17T08:15:14.330Z,16.73
2018-05-17T08:17:41.919Z,17.53
2018-05-17T08:20:09.553Z,19.30
2018-05-17T08:22:37.154Z,17.70
2018-05-17T08:25:04.774Z,16.57
2018-05-17T08:27:32.353Z,25.20
2018-05-17T08:29:59.961Z,26.73
2018-05-17T08:32:27.572Z,19.42
2018-05-17T08:34:55.161Z,19.77
2018-05-17T08:37:22.827Z,21.00
2018-05-17T08:39:50.414Z,17.53
2018-05-17T08:42:18.057Z,22.37
2018-05-17T08:44:45.642Z,16.13
2018-05-17T08:47:13.831Z,24.02
2018-05-17T08:49:41.470Z,25.42
2018-05-17T08:52:09.528Z,22.20
2018-05-17T08:54:37.848Z,18.40
2018-05-17T08:57:05.647Z,21.03
2018-05-17T08:59:33.404Z,17.60
2018-05-17T09:02:00.981Z,15.63
2018-05-17T09:04:29.405Z,21.70
2018-05-17T09:06:56.994Z,27.57
2018-05-17T09:09:24.766Z,20.43
2018-05-17T09:11:53.483Z,20.33
2018-05-17T09:14:21.061Z,15.93
2018-05-17T09:16:48.665Z,24.90
2018-05-17T09:19:16.741Z,17.67
2018-05-17T09:24:35.285Z,21.90
2018-05-17T09:27:02.874Z,17.70
2018-05-17T09:29:30.493Z,16.63
2018-05-17T09:31:58.112Z,24.47
2018-05-17T09:34:25.693Z,18.80
2018-05-17T09:36:53.319Z,25.87
2018-05-17T09:39:20.998Z,18.70
2018-05-17T09:41:48.577Z,19.63
2018-05-17T09:44:16.307Z,20.97
2018-05-17T09:46:43.925Z,17.45
2018-05-17T09:49:11.500Z,21.17
2018-05-17T09:51:39.134Z,19.83
2018-05-17T09:54:06.728Z,15.70
2018-05-17T09:56:34.576Z,20.50
2018-05-17T09:59:02.740Z,20.67
2018-05-17T10:01:30.432Z,14.90
2018-05-17T10:03:58.076Z,22.90
2018-05-17T10:06:25.679Z,16.37
2018-05-17T10:08:53.311Z,21.80
2018-05-17T10:11:21.513Z,18.40
2018-05-17T10:13:49.142Z,19.67
2018-05-17T10:16:16.724Z,15.73
2018-05-17T10:18:44.768Z,22.63
2018-05-17T10:21:12.361Z,17.17
2018-05-17T10:23:40.557Z,17.13
2018-05-17T10:26:08.196Z,21.20
2018-05-17T10:28:35.834Z,13.73
2018-05-17T10:31:03.448Z,15.10
2018-05-17T10:33:31.091Z,23.93
2018-05-17T10:35:58.789Z,16.80
2018-05-17T10:38:26.372Z,12.55
2018-05-17T10:40:54.005Z,18.10
2018-05-17T10:43:21.581Z,19.92
2018-05-17T10:45:49.162Z,21.97
2018-05-17T10:48:16.786Z,22.08
2018-05-17T10:50:44.401Z,13.63
2018-05-17T10:53:11.995Z,22.52
2018-05-17T10:55:40.209Z,20.53
2018-05-17T10:58:07.795Z,17.47
2018-05-17T11:00:35.468Z,16.37
2018-05-17T11:03:03.777Z,23.53
2018-05-17T11:05:32.053Z,22.27
2018-05-17T11:07:59.669Z,23.77
2018-05-17T11:10:27.851Z,21.13
2018-05-17T11:12:55.743Z,19.93
2018-05-17T11:15:23.396Z,22.90
2018-05-17T11:17:51.270Z,12.93
2018-05-17T11:20:18.889Z,25.70
2018-05-17T11:22:46.507Z,25.37
2018-05-17T11:25:14.097Z,23.83
2018-05-17T11:27:41.737Z,22.90
2018-05-17T11:30:09.382Z,23.40
2018-05-17T11:32:37.661Z,17.08
2018-05-17T11:35:05.281Z,24.63
2018-05-17T11:37:32.901Z,23.47
2018-05-17T11:40:00.486Z,21.10
2018-05-17T11:42:28.101Z,16.97
2018-05-17T11:44:55.917Z,15.35
2018-05-17T11:47:23.537Z,19.40
2018-05-17T11:49:51.117Z,18.37
2018-05-17T11:52:18.708Z,22.60
2018-05-17T11:54:46.496Z,19.35
2018-05-17T11:57:14.125Z,25.60
2018-05-17T11:59:41.965Z,20.20
2018-05-17T12:02:09.997Z,20.95
2018-05-17T12:04:37.620Z,20.83
2018-05-17T12:07:05.203Z,20.55
2018-05-17T12:09:32.781Z,20.15
2018-05-17T12:12:01.142Z,21.23
2018-05-17T12:14:28.733Z,21.02
2018-05-17T12:16:56.369Z,21.75
2018-05-17T12:19:24.034Z,20.27
2018-05-17T12:21:51.650Z,16.90
2018-05-17T12:24:19.295Z,28.67
2018-05-17T12:26:46.880Z,14.43
2018-05-17T12:29:14.465Z,29.33
2018-05-17T12:31:42.184Z,16.90
2018-05-17T12:34:09.757Z,19.40
2018-05-17T12:36:37.344Z,20.73
2018-05-17T12:39:06.729Z,13.40
2018-05-17T12:41:34.370Z,16.70
2018-05-17T12:44:01.949Z,21.45
2018-05-17T12:46:29.524Z,15.07
2018-05-17T12:48:57.154Z,15.73
2018-05-17T12:51:24.778Z,16.37
2018-05-17T12:53:52.503Z,18.03
2018-05-17T12:56:20.073Z,23.10
2018-05-17T12:58:47.821Z,18.50
2018-05-17T13:01:15.417Z,18.83
2018-05-17T13:03:43.053Z,13.57
2018-05-17T13:06:10.637Z,20.00
2018-05-17T13:08:38.268Z,16.87
2018-05-17T13:11:05.887Z,13.80
2018-05-17T13:13:33.763Z,18.10
2018-05-17T13:16:01.970Z,15.87
2018-05-17T13:18:29.587Z,17.87
2018-05-17T13:20:57.825Z,22.85
2018-05-17T13:23:26.013Z,19.63
2018-05-17T13:25:54.268Z,11.80
2018-05-17T13:28:21.893Z,19.67
2018-05-17T13:30:49.493Z,18.40
2018-05-17T13:33:17.113Z,15.10
2018-05-17T13:35:44.702Z,19.65
2018-05-17T13:38:12.337Z,15.93
2018-05-17T13:40:40.097Z,16.23
2018-05-17T13:43:07.721Z,17.80
2018-05-17T13:45:35.303Z,23.40
2018-05-17T13:48:02.921Z,19.90
2018-05-17T13:50:30.511Z,16.93
2018-05-17T13:52:58.301Z,21.23
2018-05-17T13:55:25.897Z,20.75
2018-05-17T13:57:53.481Z,34.37
2018-05-17T14:00:21.538Z,25.87
2018-05-17T14:02:49.249Z,29.97
2018-05-17T14:05:16.897Z,25.40
2018-05-17T14:07:44.484Z,30.30
2018-05-17T14:10:12.093Z,20.67
2018-05-17T14:12:39.681Z,20.60
2018-05-17T14:15:07.359Z,22.97
2018-05-17T14:17:34.909Z,24.20
2018-05-17T14:20:02.754Z,26.73
2018-05-17T14:22:30.350Z,25.30
2018-05-17T14:24:57.937Z,24.20
2018-05-17T14:27:25.558Z,26.87
2018-05-17T14:29:53.432Z,32.60
2018-05-17T14:32:20.810Z,20.23
2018-05-17T14:34:48.397Z,26.60
2018-05-17T14:37:16.001Z,34.45
2018-05-17T14:39:43.624Z,19.97
2018-05-17T14:42:11.813Z,33.50
2018-05-17T14:44:39.409Z,25.97
2018-05-17T14:47:07.037Z,23.73
2018-05-17T14:49:34.677Z,23.80
2018-05-17T14:52:02.297Z,25.67
2018-05-17T14:54:29.930Z,24.55
2018-05-17T14:56:57.510Z,18.73
2018-05-17T14:59:25.145Z,20.42
2018-05-17T15:01:52.724Z,23.33
2018-05-17T15:04:20.353Z,20.43
2018-05-17T15:06:47.933Z,29.57
2018-05-17T15:09:15.540Z,14.43
2018-05-17T15:11:43.158Z,21.43
2018-05-17T15:14:10.741Z,19.83
2018-05-17T15:16:38.361Z,20.20
2018-05-17T15:19:05.998Z,20.77
2018-05-17T15:21:33.591Z,20.03
2018-05-17T15:24:01.204Z,15.53
2018-05-17T15:26:28.864Z,17.80
2018-05-17T15:28:56.482Z,20.33
2018-05-17T15:31:24.074Z,17.10
2018-05-17T15:33:51.691Z,19.27
2018-05-17T15:36:19.343Z,19.83
2018-05-17T15:38:46.968Z,18.03
2018-05-17T15:41:14.602Z,19.37
2018-05-17T15:43:42.936Z,23.77
2018-05-17T15:46:10.814Z,14.20
2018-05-17T15:48:38.433Z,24.70
2018-05-17T15:51:06.216Z,18.45
2018-05-17T15:53:33.840Z,22.73
2018-05-17T15:56:01.712Z,13.80
2018-05-17T15:58:32.724Z,28.63
2018-05-17T16:01:03.522Z,15.73
2018-05-17T16:03:31.371Z,21.57
2018-05-17T16:05:59.001Z,27.67
2018-05-17T16:08:26.615Z,24.37
2018-05-17T16:10:54.444Z,19.73
2018-05-17T16:13:22.060Z,15.10
2018-05-17T16:15:49.650Z,16.97
2018-05-17T16:18:17.276Z,21.00
2018-05-17T16:20:44.857Z,16.30
2018-05-17T16:23:12.486Z,18.27
2018-05-17T16:25:40.062Z,22.53
2018-05-17T16:28:09.196Z,14.30
2018-05-17T16:30:36.813Z,16.13
2018-05-17T16:33:04.450Z,15.70
2018-05-17T16:35:32.060Z,16.40
2018-05-17T16:37:59.646Z,16.40
2018-05-17T16:40:27.273Z,22.05
2018-05-17T16:42:55.065Z,17.23
2018-05-17T16:45:22.681Z,25.55
2018-05-17T16:47:50.265Z,19.75
2018-05-17T16:50:18.325Z,19.37
2018-05-17T16:52:47.819Z,14.68
2018-05-17T16:55:15.591Z,11.47
2018-05-17T16:57:43.222Z,18.77
2018-05-17T17:00:11.123Z,15.00
2018-05-17T17:02:39.502Z,18.23
2018-05-17T17:05:07.178Z,21.87
2018-05-17T17:07:34.724Z,17.20
2018-05-17T17:10:02.337Z,22.93
2018-05-17T17:12:29.953Z,14.65
2018-05-17T17:14:57.532Z,17.87
2018-05-17T17:17:25.332Z,15.60
2018-05-17T17:19:52.961Z,15.30
2018-05-17T17:22:20.544Z,17.25
2018-05-17T17:24:48.121Z,19.30
2018-05-17T17:27:15.751Z,14.23
2018-05-17T17:29:43.342Z,8.80
2018-05-17T17:32:10.925Z,18.40
2018-05-17T17:34:38.768Z,13.83
2018-05-17T17:37:06.358Z,15.13
2018-05-17T17:39:33.973Z,10.47
2018-05-17T17:42:01.556Z,15.87
2018-05-17T17:44:29.164Z,15.30
2018-05-17T17:46:56.744Z,10.32
2018-05-17T17:49:24.397Z,16.92
2018-05-17T17:51:52.572Z,20.10
2018-05-17T17:54:20.157Z,18.52
2018-05-17T17:56:47.768Z,20.17
2018-05-17T17:59:15.353Z,17.73
2018-05-17T18:01:43.149Z,17.40
2018-05-17T18:04:10.735Z,20.10
2018-05-17T18:06:38.334Z,18.07
2018-05-17T18:09:05.962Z,18.43
2018-05-17T18:11:33.851Z,27.50
2018-05-17T18:14:01.852Z,23.83
2018-05-17T18:16:29.444Z,23.55
2018-05-17T18:18:57.090Z,22.25
2018-05-17T18:21:24.691Z,24.00
2018-05-17T18:23:52.281Z,27.37
2018-05-17T18:26:19.921Z,22.37
2018-05-17T18:28:47.518Z,22.65
2018-05-17T18:31:15.113Z,27.93
2018-05-17T18:33:43.704Z,20.60
2018-05-17T18:36:11.284Z,28.47
2018-05-17T18:38:38.925Z,30.17
2018-05-17T18:41:07.133Z,25.73
2018-05-17T18:43:35.152Z,30.10
2018-05-17T18:46:04.374Z,34.10
2018-05-17T18:48:32.193Z,37.85
2018-05-17T18:50:59.940Z,33.28
2018-05-17T18:53:27.574Z,34.47
2018-05-17T18:55:55.198Z,32.53
2018-05-17T18:58:22.932Z,39.95
2018-05-17T19:00:51.041Z,38.85
2018-05-17T19:03:18.669Z,37.50
2018-05-17T19:05:48.093Z,29.73
2018-05-17T19:08:15.948Z,33.36
2018-05-17T19:10:43.574Z,33.53
2018-05-17T19:13:11.187Z,41.87
2018-05-17T19:15:39.380Z,61.77
2018-05-17T19:18:07.495Z,34.35
2018-05-17T19:20:35.277Z,38.05
2018-05-17T19:23:02.974Z,37.77
2018-05-17T19:25:30.614Z,39.03
2018-05-17T19:27:58.230Z,37.53
2018-05-17T19:30:26.067Z,47.38
2018-05-17T19:32:53.693Z,39.53
2018-05-17T19:35:21.304Z,43.10
2018-05-17T19:37:53.229Z,38.47
2018-05-17T19:40:20.813Z,36.63
2018-05-17T19:42:48.435Z,44.88
2018-05-17T19:45:16.145Z,40.40
2018-05-17T19:47:43.665Z,36.40
2018-05-17T19:50:11.372Z,39.20
2018-05-17T19:52:38.952Z,37.27
2018-05-17T19:55:06.560Z,41.17
2018-05-17T19:57:34.185Z,49.88
2018-05-17T20:00:01.909Z,44.90
2018-05-17T20:02:29.526Z,39.08
2018-05-17T20:04:57.143Z,34.67
2018-05-17T20:07:24.892Z,41.50
2018-05-17T20:09:53.013Z,31.50
2018-05-17T20:12:21.330Z,46.17
2018-05-17T20:14:48.948Z,39.57
2018-05-17T20:17:16.534Z,35.50
2018-05-17T20:19:44.153Z,45.80
2018-05-17T20:22:11.737Z,50.97
2018-05-17T20:24:39.349Z,49.73
2018-05-17T20:27:06.933Z,43.07
2018-05-17T20:29:34.544Z,28.23
2018-05-17T20:32:02.742Z,35.80
2018-05-17T20:34:30.666Z,32.73
2018-05-17T20:36:58.243Z,40.37
2018-05-17T20:39:25.832Z,40.47
2018-05-17T20:41:54.192Z,36.80
2018-05-17T20:44:21.780Z,39.78
2018-05-17T20:46:49.428Z,27.50
2018-05-17T20:49:17.018Z,34.70
2018-05-17T20:51:44.635Z,27.93
2018-05-17T20:54:12.688Z,38.10
2018-05-17T20:56:40.314Z,38.87
2018-05-17T20:59:09.460Z,42.17
2018-05-17T21:01:37.422Z,39.38
2018-05-17T21:04:05.037Z,37.10
2018-05-17T21:06:32.661Z,37.10
2018-05-17T21:09:00.306Z,32.57
2018-05-17T21:11:27.932Z,26.37
2018-05-17T21:13:55.518Z,38.17
2018-05-17T21:16:23.147Z,29.77
2018-05-17T21:18:53.250Z,27.33
2018-05-17T21:21:20.937Z,39.67
2018-05-17T21:23:49.255Z,34.60
2018-05-17T21:26:18.156Z,27.02
2018-05-17T21:28:45.786Z,38.70
2018-05-17T21:31:13.400Z,36.00
2018-05-17T21:33:40.976Z,35.03
2018-05-17T21:36:08.620Z,42.70
2018-05-17T21:38:36.236Z,29.43
2018-05-17T21:41:04.250Z,26.35
2018-05-17T21:43:31.837Z,25.85
2018-05-17T21:45:59.436Z,28.20
2018-05-17T21:48:27.175Z,30.33
2018-05-17T21:50:54.805Z,22.80
2018-05-17T21:53:22.393Z,26.20
2018-05-17T21:55:49.977Z,25.67
2018-05-17T21:58:17.631Z,27.60
2018-05-17T22:00:45.209Z,20.50
2018-05-17T22:03:12.825Z,27.53
2018-05-17T22:05:40.597Z,26.27
2018-05-17T22:08:09.836Z,25.30
2018-05-17T22:10:37.416Z,27.45
2018-05-17T22:13:05.092Z,23.20
2018-05-17T22:15:32.714Z,28.17
2018-05-17T22:18:00.314Z,29.63
2018-05-17T22:20:27.952Z,24.73
2018-05-17T22:22:55.544Z,27.80
2018-05-17T22:25:23.129Z,41.78
2018-05-17T22:27:50.756Z,23.00
2018-05-17T22:30:18.344Z,22.90
2018-05-17T22:32:45.963Z,24.93
2018-05-17T22:35:13.546Z,46.53
2018-05-17T22:37:41.163Z,21.67
2018-05-17T22:40:09.580Z,30.20
2018-05-17T22:42:37.204Z,29.83
2018-05-17T22:45:04.813Z,22.40
2018-05-17T22:47:32.425Z,23.12
2018-05-17T22:50:00.016Z,25.67
2018-05-17T22:52:27.782Z,24.80
2018-05-17T22:54:55.406Z,22.00
2018-05-17T22:57:34.769Z,28.70
2018-05-17T23:00:03.068Z,28.87
2018-05-17T23:02:31.303Z,25.75
2018-05-17T23:04:59.470Z,23.30
2018-05-17T23:07:27.241Z,29.08
2018-05-17T23:09:54.877Z,29.87
2018-05-17T23:12:22.461Z,26.98
2018-05-17T23:14:50.125Z,36.42
2018-05-17T23:17:17.713Z,31.00
2018-05-17T23:19:45.349Z,29.87
2018-05-17T23:22:24.677Z,33.50
2018-05-17T23:24:52.308Z,29.50
2018-05-17T23:27:19.931Z,22.30
2018-05-17T23:29:47.517Z,27.90
2018-05-17T23:32:15.104Z,28.90
2018-05-17T23:34:42.725Z,26.73
2018-05-17T23:37:21.792Z,24.60
2018-05-17T23:39:49.373Z,32.80
2018-05-17T23:42:17.000Z,34.83
2018-05-17T23:44:44.645Z,28.30
2018-05-17T23:47:12.229Z,31.27
2018-05-17T23:49:40.101Z,26.93
2018-05-17T23:52:07.717Z,38.08
2018-05-17T23:54:35.333Z,24.67
2018-05-17T23:57:02.911Z,27.25
2018-05-17T23:59:30.533Z,25.30
